Time,TemperatureF,DewpointF,PressureIn,WindDirection,WindDirectionDegrees,WindSpeedMPH,WindSpeedGustMPH,Humidity,HourlyPrecipIn,Conditions,Clouds,dailyrainin,SoftwareType,DateUTC
2013-02-25 00:00:00,32.2,23.2,29.90,NNE,22,6.0,10.4,69,0.00,CLR,,0.02,WeatherDisplay:10.37,2013-02-25 05:00:00,
2013-02-25 00:01:00,32.2,23.2,29.90,NE,53,4.7,10.0,69,0.00,CLR,,0.00,WeatherDisplay:10.37,2013-02-25 05:01:00,
2013-02-25 00:06:00,32.2,23.2,29.89,NNW,340,4.4,10.4,69,0.00,CLR,,0.00,WeatherDisplay:10.37,2013-02-25 05:06:00,
2013-02-25 00:11:00,32.1,23.1,29.90,NE,34,2.3,10.4,69,0.00,CLR,,0.00,WeatherDisplay:10.37,2013-02-25 05:11:00,
2013-02-25 00:16:00,32.1,23.1,29.90,NNE,13,4.9,12.7,69,0.00,CLR,,0.00,WeatherDisplay:10.37,2013-02-25 05:16:00,
2013-02-25 00:22:00,32.1,23.1,29.90,NNE,30,1.3,6.0,69,0.00,CLR,,0.00,WeatherDisplay:10.37,2013-02-25 05:22:00,
2013-02-25 00:27:00,31.9,23.2,29.90,NE,42,1.4,5.8,70,0.00,CLR,,0.00,WeatherDisplay:10.37,2013-02-25 05:27:00,
2013-02-25 00:32:00,31.8,23.1,29.90,North,350,5.1,11.5,70,0.00,CLR,,0.00,WeatherDisplay:10.37,2013-02-25 05:32:00,
2013-02-25 00:37:00,31.6,22.9,29.90,ENE,70,2.9,5.8,70,0.00,CLR,,0.00,WeatherDisplay:10.37,2013-02-25 05:37:00,
2013-02-25 00:43:00,31.5,23.2,29.90,NE,40,2.3,6.9,71,0.00,CLR,,0.00,WeatherDisplay:10.37,2013-02-25 05:43:00,
2013-02-25 00:48:00,31.5,23.2,29.91,North,11,6.4,11.5,71,0.00,CLR,,0.00,WeatherDisplay:10.37,2013-02-25 05:48:00,
2013-02-25 00:53:00,31.3,23.0,29.91,North,360,4.5,9.2,71,0.00,CLR,,0.00,WeatherDisplay:10.37,2013-02-25 05:53:00,
2013-02-25 00:58:00,31.3,23.0,29.92,NNE,26,3.3,4.6,71,0.00,CLR,,0.00,WeatherDisplay:10.37,2013-02-25 05:58:00,
2013-02-25 01:04:00,31.3,23.0,29.92,NNW,332,0.7,3.5,71,0.00,CLR,,0.00,WeatherDisplay:10.37,2013-02-25 06:04:00,
2013-02-25 01:09:00,31.3,23.3,29.92,North,351,3.1,8.1,72,0.00,CLR,,0.00,WeatherDisplay:10.37,2013-02-25 06:09:00,
2013-02-25 01:14:00,31.2,23.2,29.92,NE,36,0.3,3.5,72,0.00,CLR,,0.00,WeatherDisplay:10.37,2013-02-25 06:14:00,
2013-02-25 01:20:00,31.2,23.2,29.92,NNE,17,2.5,4.0,72,0.00,CLR,,0.00,WeatherDisplay:10.37,2013-02-25 06:20:00,
2013-02-25 01:25:00,31.2,23.2,29.92,North,5,1.8,3.0,72,0.00,CLR,,0.00,WeatherDisplay:10.37,2013-02-25 06:25:00,
2013-02-25 01:30:00,31.2,23.2,29.92,North,350,0.1,2.3,72,0.00,CLR,,0.00,WeatherDisplay:10.37,2013-02-25 06:30:00,
2013-02-25 01:35:00,31.2,23.2,29.93,NE,44,2.1,5.8,72,0.00,CLR,,0.00,WeatherDisplay:10.37,2013-02-25 06:35:00,
2013-02-25 01:41:00,31.2,23.5,29.93,NNE,22,3.2,5.8,73,0.00,CLR,,0.00,WeatherDisplay:10.37,2013-02-25 06:41:00,
2013-02-25 01:46:00,31.3,23.6,29.93,NE,42,1.6,3.5,73,0.00,CLR,,0.00,WeatherDisplay:10.37,2013-02-25 06:46:00,
2013-02-25 01:51:00,31.3,23.3,29.93,North,355,2.7,3.5,72,0.00,CLR,,0.00,WeatherDisplay:10.37,2013-02-25 06:51:00,
2013-02-25 01:56:00,31.5,23.5,29.93,NW,325,2.3,3.5,72,0.00,CLR,,0.00,WeatherDisplay:10.37,2013-02-25 06:56:00,
2013-02-25 02:02:00,31.5,23.5,29.93,NE,48,5.3,10.0,72,0.00,CLR,,0.00,WeatherDisplay:10.37,2013-02-25 07:02:00,
2013-02-25 02:07:00,31.5,23.5,29.93,NNW,348,4.1,6.9,72,0.00,CLR,,0.00,WeatherDisplay:10.37,2013-02-25 07:07:00,
2013-02-25 02:12:00,31.6,23.3,29.93,North,5,4.7,10.0,71,0.00,CLR,,0.00,WeatherDisplay:10.37,2013-02-25 07:12:00,
2013-02-25 02:17:00,31.6,23.6,29.93,North,9,5.3,10.4,72,0.00,CLR,,0.00,WeatherDisplay:10.37,2013-02-25 07:17:00,
2013-02-25 02:23:00,31.5,23.5,29.93,NNE,13,2.1,4.6,72,0.00,CLR,,0.00,WeatherDisplay:10.37,2013-02-25 07:23:00,
2013-02-25 02:28:00,31.5,23.5,29.93,NE,42,0.2,3.5,72,0.00,CLR,,0.00,WeatherDisplay:10.37,2013-02-25 07:28:00,
2013-02-25 02:33:00,31.3,23.3,29.93,NNE,21,1.4,2.3,72,0.00,CLR,,0.00,WeatherDisplay:10.37,2013-02-25 07:33:00,
2013-02-25 02:38:00,31.3,23.3,29.93,NNE,13,1.9,5.8,72,0.00,CLR,,0.00,WeatherDisplay:10.37,2013-02-25 07:38:00,
2013-02-25 02:43:00,31.2,23.5,29.93,North,9,2.6,3.5,73,0.00,CLR,,0.00,WeatherDisplay:10.37,2013-02-25 07:43:00,
2013-02-25 02:49:00,31.0,23.4,29.93,NNW,328,2.2,3.5,73,0.00,CLR,,0.00,WeatherDisplay:10.37,2013-02-25 07:49:00,
2013-02-25 02:54:00,30.9,23.6,29.93,NNE,29,3.0,5.0,74,0.00,CLR,,0.00,WeatherDisplay:10.37,2013-02-25 07:54:00,
2013-02-25 02:59:00,30.9,23.6,29.93,NNE,23,4.9,10.4,74,0.00,CLR,,0.00,WeatherDisplay:10.37,2013-02-25 07:59:00,
2013-02-25 03:04:00,30.7,23.4,29.93,NNE,26,0.0,3.5,74,0.00,CLR,,0.00,WeatherDisplay:10.37,2013-02-25 08:04:00,
2013-02-25 03:09:00,30.7,23.4,29.93,NNE,32,0.8,2.3,74,0.00,CLR,,0.00,WeatherDisplay:10.37,2013-02-25 08:09:00,
2013-02-25 03:14:00,30.6,23.6,29.93,NE,38,0.8,2.3,75,0.00,CLR,,0.00,WeatherDisplay:10.37,2013-02-25 08:14:00,
2013-02-25 03:20:00,30.4,23.4,29.93,NNE,29,2.5,4.6,75,0.00,CLR,,0.00,WeatherDisplay:10.37,2013-02-25 08:20:00,
2013-02-25 03:25:00,30.4,23.4,29.93,NE,34,1.7,3.5,75,0.00,CLR,,0.00,WeatherDisplay:10.37,2013-02-25 08:25:00,
2013-02-25 03:30:00,30.3,23.6,29.93,NE,34,0.2,0.0,76,0.00,CLR,,0.00,WeatherDisplay:10.37,2013-02-25 08:30:00,
2013-02-25 03:36:00,30.0,23.7,29.94,NE,34,0.0,2.3,77,0.00,CLR,,0.00,WeatherDisplay:10.37,2013-02-25 08:36:00,
2013-02-25 03:41:00,29.7,23.4,29.94,NE,34,0.0,0.0,77,0.00,CLR,,0.00,WeatherDisplay:10.37,2013-02-25 08:41:00,
2013-02-25 03:46:00,29.5,23.5,29.94,NE,34,0.0,0.0,78,0.00,CLR,,0.00,WeatherDisplay:10.37,2013-02-25 08:46:00,
2013-02-25 03:52:00,29.4,23.4,29.95,NE,34,0.3,1.1,78,0.00,CLR,,0.00,WeatherDisplay:10.37,2013-02-25 08:52:00,
2013-02-25 03:57:00,29.3,23.6,29.95,NE,34,0.0,0.0,79,0.00,CLR,,0.00,WeatherDisplay:10.37,2013-02-25 08:57:00,
2013-02-25 04:02:00,29.1,23.7,29.95,NE,34,0.0,0.0,80,0.00,CLR,,0.00,WeatherDisplay:10.37,2013-02-25 09:02:00,
2013-02-25 04:07:00,28.8,23.4,29.95,NE,34,0.1,1.1,80,0.00,CLR,,0.00,WeatherDisplay:10.37,2013-02-25 09:07:00,
2013-02-25 04:12:00,28.7,23.3,29.95,NE,34,0.0,0.0,80,0.00,CLR,,0.00,WeatherDisplay:10.37,2013-02-25 09:12:00,
2013-02-25 04:17:00,28.4,23.3,29.96,NE,34,0.0,0.0,81,0.00,CLR,,0.00,WeatherDisplay:10.37,2013-02-25 09:17:00,
2013-02-25 04:22:00,28.2,23.4,29.96,NE,34,0.0,0.0,82,0.00,CLR,,0.00,WeatherDisplay:10.37,2013-02-25 09:22:00,
2013-02-25 04:28:00,28.1,23.3,29.97,NE,34,0.0,0.0,82,0.00,CLR,,0.00,WeatherDisplay:10.37,2013-02-25 09:28:00,
2013-02-25 04:33:00,27.9,23.4,29.97,NE,34,0.0,0.0,83,0.00,CLR,,0.00,WeatherDisplay:10.37,2013-02-25 09:33:00,
2013-02-25 04:38:00,27.9,23.4,29.97,NE,34,0.0,0.0,83,0.00,CLR,,0.00,WeatherDisplay:10.37,2013-02-25 09:38:00,
2013-02-25 04:43:00,27.8,23.6,29.97,NE,34,0.0,0.0,84,0.00,CLR,,0.00,WeatherDisplay:10.37,2013-02-25 09:43:00,
2013-02-25 04:49:00,27.8,23.6,29.97,NE,34,0.0,0.0,84,0.00,CLR,,0.00,WeatherDisplay:10.37,2013-02-25 09:49:00,
2013-02-25 04:54:00,27.8,23.6,29.97,NE,34,0.8,2.3,84,0.00,CLR,,0.00,WeatherDisplay:10.37,2013-02-25 09:54:00,
2013-02-25 04:59:00,28.1,23.6,29.98,NE,34,0.0,0.0,83,0.00,CLR,,0.00,WeatherDisplay:10.37,2013-02-25 09:59:00,
2013-02-25 05:04:00,28.2,23.7,29.98,NE,34,0.1,0.0,83,0.00,CLR,,0.00,WeatherDisplay:10.37,2013-02-25 10:04:00,
2013-02-25 05:10:00,28.4,23.6,29.98,NE,34,0.7,2.3,82,0.00,CLR,,0.00,WeatherDisplay:10.37,2013-02-25 10:10:00,
2013-02-25 05:15:00,28.5,23.7,29.98,NNE,24,1.2,3.0,82,0.00,CLR,,0.00,WeatherDisplay:10.37,2013-02-25 10:15:00,
2013-02-25 05:20:00,28.5,23.7,29.98,NNE,30,1.5,2.3,82,0.00,CLR,,0.00,WeatherDisplay:10.37,2013-02-25 10:20:00,
2013-02-25 05:26:00,28.5,24.0,29.98,ENE,62,0.3,2.3,83,0.00,CLR,,0.00,WeatherDisplay:10.37,2013-02-25 10:26:00,
2013-02-25 05:31:00,28.4,23.9,29.98,ENE,62,0.0,0.0,83,0.00,CLR,,0.00,WeatherDisplay:10.37,2013-02-25 10:31:00,
2013-02-25 05:36:00,28.2,23.7,29.98,ENE,62,0.0,1.1,83,0.00,CLR,,0.00,WeatherDisplay:10.37,2013-02-25 10:36:00,
2013-02-25 05:41:00,28.2,24.0,29.98,ENE,62,0.2,1.1,84,0.00,CLR,,0.00,WeatherDisplay:10.37,2013-02-25 10:41:00,
2013-02-25 05:47:00,28.2,24.0,29.98,ENE,62,0.0,0.0,84,0.00,CLR,,0.00,WeatherDisplay:10.37,2013-02-25 10:47:00,
2013-02-25 05:52:00,28.4,24.2,29.98,ENE,62,0.0,0.0,84,0.00,CLR,,0.00,WeatherDisplay:10.37,2013-02-25 10:52:00,
2013-02-25 05:57:00,28.5,24.3,29.98,ESE,111,0.5,3.5,84,0.00,CLR,,0.00,WeatherDisplay:10.37,2013-02-25 10:57:00,
2013-02-25 06:03:00,28.5,24.3,29.98,ESE,111,0.0,0.0,84,0.00,CLR,,0.00,WeatherDisplay:10.37,2013-02-25 11:03:00,
2013-02-25 06:08:00,28.4,24.2,29.99,ENE,61,0.0,0.0,84,0.00,CLR,,0.00,WeatherDisplay:10.37,2013-02-25 11:08:00,
2013-02-25 06:13:00,28.4,24.5,29.99,ENE,61,0.0,0.0,85,0.00,CLR,,0.00,WeatherDisplay:10.37,2013-02-25 11:13:00,
2013-02-25 06:18:00,28.4,24.5,30.00,ENE,61,0.1,0.0,85,0.00,CLR,,0.00,WeatherDisplay:10.37,2013-02-25 11:18:00,
2013-02-25 06:23:00,28.4,24.5,30.00,ENE,61,1.6,2.3,85,0.00,CLR,,0.00,WeatherDisplay:10.37,2013-02-25 11:23:00,
2013-02-25 06:29:00,28.5,24.6,30.00,ENE,61,1.4,3.5,85,0.00,CLR,,0.00,WeatherDisplay:10.37,2013-02-25 11:29:00,
2013-02-25 06:34:00,28.4,24.5,30.00,ENE,61,0.0,0.0,85,0.00,CLR,,0.00,WeatherDisplay:10.37,2013-02-25 11:34:00,
2013-02-25 06:39:00,28.4,24.5,30.00,ENE,61,0.4,1.1,85,0.00,CLR,,0.00,WeatherDisplay:10.37,2013-02-25 11:39:00,
2013-02-25 06:44:00,28.5,24.8,30.01,ENE,61,1.0,1.1,86,0.00,CLR,,0.00,WeatherDisplay:10.37,2013-02-25 11:44:00,
2013-02-25 06:50:00,28.4,24.5,30.01,ENE,61,0.1,1.1,85,0.00,CLR,,0.00,WeatherDisplay:10.37,2013-02-25 11:50:00,
2013-02-25 06:55:00,28.4,24.7,30.01,ENE,61,0.1,1.1,86,0.00,CLR,,0.00,WeatherDisplay:10.37,2013-02-25 11:55:00,
2013-02-25 07:00:00,28.5,24.8,30.01,ENE,61,0.0,0.0,86,0.00,CLR,,0.00,WeatherDisplay:10.37,2013-02-25 12:00:00,
2013-02-25 07:06:00,28.7,25.0,30.01,ENE,71,0.2,3.5,86,0.00,CLR,,0.00,WeatherDisplay:10.37,2013-02-25 12:06:00,
2013-02-25 07:11:00,28.7,25.0,30.02,ENE,71,0.1,1.1,86,0.00,CLR,,0.00,WeatherDisplay:10.37,2013-02-25 12:11:00,
2013-02-25 07:16:00,28.8,25.1,30.02,ENE,71,0.6,2.0,86,0.00,CLR,,0.00,WeatherDisplay:10.37,2013-02-25 12:16:00,
2013-02-25 07:21:00,28.8,25.1,30.02,ENE,63,1.9,3.5,86,0.00,CLR,,0.00,WeatherDisplay:10.37,2013-02-25 12:21:00,
2013-02-25 07:26:00,29.0,25.3,30.02,NE,44,2.7,3.5,86,0.00,CLR,,0.00,WeatherDisplay:10.37,2013-02-25 12:26:00,
2013-02-25 07:32:00,29.3,25.6,30.02,ENE,59,0.2,2.3,86,0.00,CLR,,0.00,WeatherDisplay:10.37,2013-02-25 12:32:00,
2013-02-25 07:37:00,29.4,25.4,30.03,NNE,17,1.8,3.5,85,0.00,CLR,,0.00,WeatherDisplay:10.37,2013-02-25 12:37:00,
2013-02-25 07:42:00,29.7,25.7,30.03,ENE,66,2.1,3.5,85,0.00,CLR,,0.00,WeatherDisplay:10.37,2013-02-25 12:42:00,
2013-02-25 07:47:00,30.0,26.0,30.03,ENE,62,0.0,2.3,85,0.00,CLR,,0.00,WeatherDisplay:10.37,2013-02-25 12:47:00,
2013-02-25 07:53:00,30.3,26.0,30.03,ENE,67,1.7,4.0,84,0.00,CLR,,0.00,WeatherDisplay:10.37,2013-02-25 12:53:00,
2013-02-25 07:58:00,30.6,26.3,30.03,ENE,67,3.3,5.8,84,0.00,CLR,,0.00,WeatherDisplay:10.37,2013-02-25 12:58:00,
2013-02-25 08:03:00,30.9,26.3,30.03,ENE,60,0.3,3.5,83,0.00,CLR,,0.00,WeatherDisplay:10.37,2013-02-25 13:03:00,
2013-02-25 08:09:00,31.3,26.7,30.03,NNE,30,1.1,3.5,83,0.00,CLR,,0.00,WeatherDisplay:10.37,2013-02-25 13:09:00,
2013-02-25 08:14:00,31.8,26.9,30.04,NNE,25,4.7,5.8,82,0.00,CLR,,0.00,WeatherDisplay:10.37,2013-02-25 13:14:00,
2013-02-25 08:19:00,31.9,27.0,30.05,NE,51,2.7,3.5,82,0.00,CLR,,0.00,WeatherDisplay:10.37,2013-02-25 13:19:00,
2013-02-25 08:24:00,32.4,27.2,30.05,ENE,74,4.9,6.9,81,0.00,CLR,,0.00,WeatherDisplay:10.37,2013-02-25 13:24:00,
2013-02-25 08:29:00,32.8,27.3,30.04,NNW,342,2.7,6.9,80,0.00,CLR,,0.00,WeatherDisplay:10.37,2013-02-25 13:29:00,
2013-02-25 08:35:00,33.4,27.6,30.04,NNE,13,4.3,6.9,79,0.00,CLR,,0.00,WeatherDisplay:10.37,2013-02-25 13:35:00,
2013-02-25 08:40:00,34.0,27.5,30.04,NE,36,2.3,6.9,77,0.00,CLR,,0.00,WeatherDisplay:10.37,2013-02-25 13:40:00,
2013-02-25 08:45:00,34.7,27.6,30.04,ENE,65,7.5,11.5,75,0.00,CLR,,0.00,WeatherDisplay:10.37,2013-02-25 13:45:00,
2013-02-25 08:51:00,35.3,27.8,30.04,ENE,58,5.7,8.1,74,0.00,CLR,,0.00,WeatherDisplay:10.37,2013-02-25 13:51:00,
2013-02-25 08:56:00,35.8,28.0,30.04,NE,34,5.5,9.2,73,0.00,CLR,,0.00,WeatherDisplay:10.37,2013-02-25 13:56:00,
2013-02-25 09:01:00,35.9,27.7,30.04,NE,38,2.6,4.6,72,0.00,CLR,,0.00,WeatherDisplay:10.37,2013-02-25 14:01:00,
2013-02-25 09:06:00,36.2,28.0,30.04,NNE,12,5.0,6.0,72,0.00,CLR,,0.00,WeatherDisplay:10.37,2013-02-25 14:06:00,
2013-02-25 09:12:00,36.0,27.2,30.05,North,350,6.8,11.5,70,0.00,CLR,,0.00,WeatherDisplay:10.37,2013-02-25 14:12:00,
2013-02-25 09:17:00,36.0,27.2,30.05,North,360,5.1,8.1,70,0.00,CLR,,0.00,WeatherDisplay:10.37,2013-02-25 14:17:00,
2013-02-25 09:22:00,36.2,27.4,30.05,North,355,5.9,12.7,70,0.00,CLR,,0.00,WeatherDisplay:10.37,2013-02-25 14:22:00,
2013-02-25 09:27:00,36.0,27.2,30.05,NNE,19,4.4,6.9,70,0.00,CLR,,0.00,WeatherDisplay:10.37,2013-02-25 14:27:00,
2013-02-25 09:33:00,36.3,26.7,30.05,NNE,17,4.0,4.0,68,0.00,CLR,,0.00,WeatherDisplay:10.37,2013-02-25 14:33:00,
2013-02-25 09:38:00,36.9,27.3,30.05,NNE,23,6.2,10.4,68,0.00,CLR,,0.00,WeatherDisplay:10.37,2013-02-25 14:38:00,
2013-02-25 09:43:00,37.2,27.6,30.05,North,5,1.7,3.5,68,0.00,CLR,,0.00,WeatherDisplay:10.37,2013-02-25 14:43:00,
2013-02-25 09:48:00,37.6,27.6,30.05,NE,53,5.0,5.0,67,0.00,CLR,,0.00,WeatherDisplay:10.37,2013-02-25 14:48:00,
2013-02-25 09:54:00,37.8,27.5,30.05,NE,36,5.0,6.9,66,0.00,CLR,,0.00,WeatherDisplay:10.37,2013-02-25 14:54:00,
2013-02-25 09:59:00,37.6,26.9,30.05,NE,46,6.0,11.5,65,0.00,CLR,,0.00,WeatherDisplay:10.37,2013-02-25 14:59:00,
2013-02-25 10:04:00,37.6,26.9,30.06,NNE,28,4.2,6.0,65,0.00,CLR,,0.00,WeatherDisplay:10.37,2013-02-25 15:04:00,
2013-02-25 10:10:00,37.8,27.1,30.06,North,10,3.1,3.5,65,0.00,CLR,,0.00,WeatherDisplay:10.37,2013-02-25 15:10:00,
2013-02-25 10:15:00,37.9,27.2,30.06,NE,38,1.2,5.0,65,0.00,CLR,,0.00,WeatherDisplay:10.37,2013-02-25 15:15:00,
2013-02-25 10:20:00,38.2,27.5,30.06,WNW,302,2.2,3.5,65,0.00,CLR,,0.00,WeatherDisplay:10.37,2013-02-25 15:20:00,
2013-02-25 10:26:00,38.3,26.8,30.06,NW,322,8.5,11.5,63,0.00,CLR,,0.00,WeatherDisplay:10.37,2013-02-25 15:26:00,
2013-02-25 10:31:00,38.0,26.1,30.06,North,355,5.2,9.2,62,0.00,CLR,,0.00,WeatherDisplay:10.37,2013-02-25 15:31:00,
2013-02-25 10:36:00,38.2,26.7,30.05,WNW,302,2.6,5.0,63,0.00,CLR,,0.00,WeatherDisplay:10.37,2013-02-25 15:36:00,
2013-02-25 10:41:00,38.3,26.4,30.05,NW,317,6.0,9.2,62,0.00,CLR,,0.00,WeatherDisplay:10.37,2013-02-25 15:41:00,
2013-02-25 10:47:00,38.5,27.4,30.05,NNE,28,3.3,5.8,64,0.00,CLR,,0.00,WeatherDisplay:10.37,2013-02-25 15:47:00,
2013-02-25 10:52:00,38.9,26.6,30.05,NNE,20,3.6,10.4,61,0.00,CLR,,0.00,WeatherDisplay:10.37,2013-02-25 15:52:00,
2013-02-25 10:57:00,39.5,27.5,30.04,NW,319,2.5,5.8,62,0.00,CLR,,0.00,WeatherDisplay:10.37,2013-02-25 15:57:00,
2013-02-25 11:03:00,39.8,27.4,30.05,NNW,328,4.8,5.8,61,0.00,CLR,,0.00,WeatherDisplay:10.37,2013-02-25 16:03:00,
2013-02-25 11:08:00,39.9,26.7,30.05,North,355,5.0,10.4,59,0.00,CLR,,0.00,WeatherDisplay:10.37,2013-02-25 16:08:00,
2013-02-25 11:13:00,39.9,26.7,30.05,WNW,300,7.2,11.5,59,0.00,CLR,,0.00,WeatherDisplay:10.37,2013-02-25 16:13:00,
2013-02-25 11:18:00,40.1,26.9,30.06,NNE,17,5.3,5.8,59,0.00,CLR,,0.00,WeatherDisplay:10.37,2013-02-25 16:18:00,
2013-02-25 11:23:00,40.1,26.9,30.06,NNE,16,5.4,11.5,59,0.00,CLR,,0.00,WeatherDisplay:10.37,2013-02-25 16:23:00,
2013-02-25 11:29:00,40.3,27.1,30.06,NW,318,5.6,5.8,59,0.00,CLR,,0.00,WeatherDisplay:10.37,2013-02-25 16:29:00,
2013-02-25 11:34:00,40.6,27.0,30.06,NE,52,4.4,6.9,58,0.00,CLR,,0.00,WeatherDisplay:10.37,2013-02-25 16:34:00,
2013-02-25 11:39:00,41.1,26.6,30.06,NW,326,5.0,6.9,56,0.00,CLR,,0.00,WeatherDisplay:10.37,2013-02-25 16:39:00,
2013-02-25 11:44:00,41.1,26.1,30.06,WNW,302,2.4,3.5,55,0.00,CLR,,0.00,WeatherDisplay:10.37,2013-02-25 16:44:00,
2013-02-25 11:50:00,41.2,26.2,30.06,NE,49,6.4,10.4,55,0.00,CLR,,0.00,WeatherDisplay:10.37,2013-02-25 16:50:00,
2013-02-25 11:55:00,41.2,26.7,30.06,NNE,12,5.9,6.9,56,0.00,CLR,,0.00,WeatherDisplay:10.37,2013-02-25 16:55:00,
2013-02-25 12:00:00,41.2,26.2,30.06,North,5,7.1,13.8,55,0.00,CLR,,0.00,WeatherDisplay:10.37,2013-02-25 17:00:00,
2013-02-25 12:05:00,41.2,26.2,30.06,NW,315,3.7,5.8,55,0.00,CLR,,0.00,WeatherDisplay:10.37,2013-02-25 17:05:00,
2013-02-25 12:10:00,41.3,27.2,30.06,NNE,26,2.8,4.6,57,0.00,CLR,,0.00,WeatherDisplay:10.37,2013-02-25 17:10:00,
2013-02-25 12:16:00,41.8,27.7,30.06,WNW,296,3.2,7.0,57,0.00,CLR,,0.00,WeatherDisplay:10.37,2013-02-25 17:16:00,
2013-02-25 12:21:00,42.2,27.2,30.06,North,355,8.1,13.8,55,0.00,CLR,,0.00,WeatherDisplay:10.37,2013-02-25 17:21:00,
2013-02-25 12:26:00,41.9,27.3,30.06,NNE,18,0.9,2.3,56,0.00,CLR,,0.00,WeatherDisplay:10.37,2013-02-25 17:26:00,
2013-02-25 12:31:00,41.9,26.4,30.06,NNE,25,4.3,5.8,54,0.00,CLR,,0.00,WeatherDisplay:10.37,2013-02-25 17:31:00,
2013-02-25 12:37:00,42.2,26.3,30.06,NNW,342,4.6,9.2,53,0.00,CLR,,0.00,WeatherDisplay:10.37,2013-02-25 17:37:00,
2013-02-25 12:42:00,41.8,26.4,30.06,NNE,24,3.2,4.6,54,0.00,CLR,,0.00,WeatherDisplay:10.37,2013-02-25 17:42:00,
2013-02-25 12:47:00,41.8,26.8,30.06,NNW,343,4.4,5.0,55,0.00,CLR,,0.00,WeatherDisplay:10.37,2013-02-25 17:47:00,
2013-02-25 12:52:00,41.9,26.4,30.06,North,350,3.8,6.0,54,0.00,CLR,,0.00,WeatherDisplay:10.37,2013-02-25 17:52:00,
2013-02-25 12:57:00,41.8,26.4,30.06,NW,321,2.1,4.6,54,0.00,CLR,,0.00,WeatherDisplay:10.37,2013-02-25 17:57:00,
2013-02-25 13:03:00,41.9,26.9,30.07,NW,314,4.7,5.8,55,0.00,CLR,,0.00,WeatherDisplay:10.37,2013-02-25 18:03:00,
2013-02-25 13:08:00,42.9,26.9,30.07,NW,307,5.3,11.5,53,0.00,CLR,,0.00,WeatherDisplay:10.37,2013-02-25 18:08:00,
2013-02-25 13:13:00,43.8,28.2,30.07,NW,316,3.7,6.9,54,0.00,CLR,,0.00,WeatherDisplay:10.37,2013-02-25 18:13:00,
2013-02-25 13:18:00,44.1,27.1,30.07,NW,308,2.2,5.8,51,0.00,CLR,,0.00,WeatherDisplay:10.37,2013-02-25 18:18:00,
2013-02-25 13:24:00,43.9,26.4,30.07,NNE,28,2.4,5.8,50,0.00,CLR,,0.00,WeatherDisplay:10.37,2013-02-25 18:24:00,
2013-02-25 13:29:00,42.9,26.5,30.06,NW,307,5.5,9.2,52,0.00,CLR,,0.00,WeatherDisplay:10.37,2013-02-25 18:29:00,
2013-02-25 13:34:00,42.2,26.7,30.07,NW,315,4.1,4.6,54,0.00,CLR,,0.00,WeatherDisplay:10.37,2013-02-25 18:34:00,
2013-02-25 13:39:00,42.9,27.8,30.06,WNW,303,1.1,7.0,55,0.00,CLR,,0.00,WeatherDisplay:10.37,2013-02-25 18:39:00,
2013-02-25 13:45:00,44.3,27.3,30.06,West,268,2.1,3.5,51,0.00,CLR,,0.00,WeatherDisplay:10.37,2013-02-25 18:45:00,
2013-02-25 13:50:00,44.5,27.0,30.06,NNE,24,2.2,4.6,50,0.00,CLR,,0.00,WeatherDisplay:10.37,2013-02-25 18:50:00,
2013-02-25 13:55:00,44.2,26.2,30.06,NE,40,2.4,6.9,49,0.00,CLR,,0.00,WeatherDisplay:10.37,2013-02-25 18:55:00,
2013-02-25 14:00:00,43.8,26.8,30.06,North,5,1.6,3.5,51,0.00,CLR,,0.00,WeatherDisplay:10.37,2013-02-25 19:00:00,
2013-02-25 14:05:00,43.5,27.0,30.06,NNW,342,3.2,3.5,52,0.00,CLR,,0.00,WeatherDisplay:10.37,2013-02-25 19:05:00,
2013-02-25 14:11:00,42.8,26.4,30.06,North,355,1.5,6.9,52,0.00,CLR,,0.00,WeatherDisplay:10.37,2013-02-25 19:11:00,
2013-02-25 14:16:00,42.3,26.8,30.07,North,355,0.2,1.1,54,0.00,CLR,,0.00,WeatherDisplay:10.37,2013-02-25 19:16:00,
2013-02-25 14:21:00,42.2,26.3,30.06,NE,55,4.3,8.1,53,0.00,CLR,,0.00,WeatherDisplay:10.37,2013-02-25 19:21:00,
2013-02-25 14:26:00,42.2,26.3,30.06,NNE,19,4.5,10.0,53,0.00,CLR,,0.00,WeatherDisplay:10.37,2013-02-25 19:26:00,
2013-02-25 14:32:00,42.1,26.6,30.07,NNE,13,2.5,3.5,54,0.00,CLR,,0.00,WeatherDisplay:10.37,2013-02-25 19:32:00,
2013-02-25 14:37:00,41.9,26.0,30.06,ENE,66,4.3,4.6,53,0.00,CLR,,0.00,WeatherDisplay:10.37,2013-02-25 19:37:00,
2013-02-25 14:42:00,42.6,26.6,30.07,WNW,286,0.7,3.5,53,0.00,CLR,,0.00,WeatherDisplay:10.37,2013-02-25 19:42:00,
2013-02-25 14:48:00,43.2,27.2,30.07,NNW,341,5.5,6.9,53,0.00,CLR,,0.00,WeatherDisplay:10.37,2013-02-25 19:48:00,
2013-02-25 14:53:00,43.2,26.7,30.07,NW,309,3.2,4.0,52,0.00,CLR,,0.00,WeatherDisplay:10.37,2013-02-25 19:53:00,
2013-02-25 14:58:00,42.8,26.4,30.07,NW,317,5.0,5.8,52,0.00,CLR,,0.00,WeatherDisplay:10.37,2013-02-25 19:58:00,
2013-02-25 15:03:00,42.5,26.6,30.07,NNW,327,2.2,6.9,53,0.00,CLR,,0.00,WeatherDisplay:10.37,2013-02-25 20:03:00,
2013-02-25 15:08:00,42.5,25.6,30.07,NNW,346,0.5,3.5,51,0.00,CLR,,0.00,WeatherDisplay:10.37,2013-02-25 20:08:00,
2013-02-25 15:14:00,42.2,25.8,30.07,ENE,66,7.8,13.0,52,0.00,CLR,,0.00,WeatherDisplay:10.37,2013-02-25 20:14:00,
2013-02-25 15:19:00,42.3,26.4,30.08,North,11,1.1,5.8,53,0.00,CLR,,0.00,WeatherDisplay:10.37,2013-02-25 20:19:00,
2013-02-25 15:24:00,42.1,25.7,30.07,NNW,344,1.7,4.6,52,0.00,CLR,,0.00,WeatherDisplay:10.37,2013-02-25 20:24:00,
2013-02-25 15:29:00,41.8,25.9,30.08,NW,309,1.6,4.6,53,0.00,CLR,,0.00,WeatherDisplay:10.37,2013-02-25 20:29:00,
2013-02-25 15:35:00,41.6,25.7,30.08,NE,42,3.4,4.0,53,0.00,CLR,,0.00,WeatherDisplay:10.37,2013-02-25 20:35:00,
2013-02-25 15:40:00,41.6,25.7,30.08,NNE,16,1.7,5.8,53,0.00,CLR,,0.00,WeatherDisplay:10.37,2013-02-25 20:40:00,
2013-02-25 15:45:00,41.6,25.3,30.08,NNE,21,0.3,2.3,52,0.00,CLR,,0.00,WeatherDisplay:10.37,2013-02-25 20:45:00,
2013-02-25 15:51:00,41.6,26.2,30.08,NNE,30,1.9,6.0,54,0.00,CLR,,0.00,WeatherDisplay:10.37,2013-02-25 20:51:00,
2013-02-25 15:56:00,41.6,26.2,30.09,NNW,344,3.0,6.0,54,0.00,CLR,,0.00,WeatherDisplay:10.37,2013-02-25 20:56:00,
2013-02-25 16:01:00,41.5,26.5,30.09,NNW,336,0.1,1.1,55,0.00,CLR,,0.00,WeatherDisplay:10.37,2013-02-25 21:01:00,
2013-02-25 16:06:00,41.5,26.5,30.09,NNE,20,0.7,4.0,55,0.00,CLR,,0.00,WeatherDisplay:10.37,2013-02-25 21:06:00,
2013-02-25 16:12:00,41.3,26.3,30.09,NNE,28,3.4,3.5,55,0.00,CLR,,0.00,WeatherDisplay:10.37,2013-02-25 21:12:00,
2013-02-25 16:17:00,41.3,26.8,30.09,NNE,26,4.8,7.0,56,0.00,CLR,,0.00,WeatherDisplay:10.37,2013-02-25 21:17:00,
2013-02-25 16:22:00,41.2,26.2,30.09,ENE,66,3.8,5.8,55,0.00,CLR,,0.00,WeatherDisplay:10.37,2013-02-25 21:22:00,
2013-02-25 16:28:00,41.2,26.7,30.09,NNE,15,1.6,3.5,56,0.00,CLR,,0.00,WeatherDisplay:10.37,2013-02-25 21:28:00,
2013-02-25 16:33:00,41.1,26.1,30.09,North,5,3.8,10.4,55,0.00,CLR,,0.00,WeatherDisplay:10.37,2013-02-25 21:33:00,
2013-02-25 16:38:00,40.9,26.0,30.09,NNE,30,0.7,5.8,55,0.00,CLR,,0.00,WeatherDisplay:10.37,2013-02-25 21:38:00,
2013-02-25 16:43:00,40.8,26.3,30.09,NNE,30,0.0,0.0,56,0.00,CLR,,0.00,WeatherDisplay:10.37,2013-02-25 21:43:00,
2013-02-25 16:49:00,40.8,26.3,30.09,NNE,22,3.6,5.8,56,0.00,CLR,,0.00,WeatherDisplay:10.37,2013-02-25 21:49:00,
2013-02-25 16:54:00,40.6,26.1,30.09,NNE,27,3.2,4.6,56,0.00,CLR,,0.00,WeatherDisplay:10.37,2013-02-25 21:54:00,
2013-02-25 16:59:00,40.6,26.1,30.09,NNE,14,0.9,4.0,56,0.00,CLR,,0.00,WeatherDisplay:10.37,2013-02-25 21:59:00,
2013-02-25 17:04:00,40.5,26.0,30.09,North,9,0.8,3.5,56,0.00,CLR,,0.00,WeatherDisplay:10.37,2013-02-25 22:04:00,
2013-02-25 17:10:00,40.3,26.3,30.09,NNE,21,2.8,4.6,57,0.00,CLR,,0.00,WeatherDisplay:10.37,2013-02-25 22:10:00,
2013-02-25 17:15:00,40.2,26.2,30.09,NNE,21,1.2,3.5,57,0.00,CLR,,0.00,WeatherDisplay:10.37,2013-02-25 22:15:00,
2013-02-25 17:20:00,40.2,26.2,30.10,NE,49,2.1,4.6,57,0.00,CLR,,0.00,WeatherDisplay:10.37,2013-02-25 22:20:00,
2013-02-25 17:25:00,40.1,26.5,30.10,NNE,32,2.4,4.6,58,0.00,CLR,,0.00,WeatherDisplay:10.37,2013-02-25 22:25:00,
2013-02-25 17:30:00,39.9,26.3,30.09,ENE,62,2.4,3.5,58,0.00,CLR,,0.00,WeatherDisplay:10.37,2013-02-25 22:30:00,
2013-02-25 17:35:00,39.8,26.6,30.10,NE,36,1.0,2.3,59,0.00,CLR,,0.00,WeatherDisplay:10.37,2013-02-25 22:35:00,
2013-02-25 17:41:00,39.6,26.4,30.10,NE,36,0.4,3.5,59,0.00,CLR,,0.00,WeatherDisplay:10.37,2013-02-25 22:41:00,
2013-02-25 17:46:00,39.5,26.3,30.10,NE,36,0.5,0.0,59,0.00,CLR,,0.00,WeatherDisplay:10.37,2013-02-25 22:46:00,
2013-02-25 17:51:00,39.3,26.6,30.11,NE,36,0.0,0.0,60,0.00,CLR,,0.00,WeatherDisplay:10.37,2013-02-25 22:51:00,
2013-02-25 17:57:00,39.2,26.5,30.12,NE,36,0.1,0.0,60,0.00,CLR,,0.00,WeatherDisplay:10.37,2013-02-25 22:57:00,
2013-02-25 18:02:00,39.1,26.4,30.12,NE,36,0.0,0.0,60,0.00,CLR,,0.00,WeatherDisplay:10.37,2013-02-25 23:02:00,
2013-02-25 18:07:00,39.1,26.8,30.12,NE,36,0.0,0.0,61,0.00,CLR,,0.00,WeatherDisplay:10.37,2013-02-25 23:07:00,
2013-02-25 18:12:00,38.9,27.0,30.12,NE,36,0.0,0.0,62,0.00,CLR,,0.00,WeatherDisplay:10.37,2013-02-25 23:12:00,
2013-02-25 18:18:00,38.8,27.3,30.13,NE,36,0.0,0.0,63,0.00,CLR,,0.00,WeatherDisplay:10.37,2013-02-25 23:18:00,
2013-02-25 18:23:00,38.8,27.3,30.14,NE,36,0.0,0.0,63,0.00,CLR,,0.00,WeatherDisplay:10.37,2013-02-25 23:23:00,
2013-02-25 18:28:00,38.5,27.0,30.14,NE,36,0.0,0.0,63,0.00,CLR,,0.00,WeatherDisplay:10.37,2013-02-25 23:28:00,
2013-02-25 18:33:00,38.3,27.6,30.14,NE,36,0.0,0.0,65,0.00,CLR,,0.00,WeatherDisplay:10.37,2013-02-25 23:33:00,
2013-02-25 18:38:00,38.2,27.8,30.14,NE,36,0.0,0.0,66,0.00,CLR,,0.00,WeatherDisplay:10.37,2013-02-25 23:38:00,
2013-02-25 18:43:00,37.8,27.5,30.14,NE,36,0.0,0.0,66,0.00,CLR,,0.00,WeatherDisplay:10.37,2013-02-25 23:43:00,
2013-02-25 18:49:00,37.5,27.9,30.14,NE,36,0.0,0.0,68,0.00,CLR,,0.00,WeatherDisplay:10.37,2013-02-25 23:49:00,
2013-02-25 18:54:00,37.2,27.2,30.14,NE,36,0.0,0.0,67,0.00,CLR,,0.00,WeatherDisplay:10.37,2013-02-25 23:54:00,
2013-02-25 18:59:00,37.0,27.1,30.15,NE,36,0.0,0.0,67,0.00,CLR,,0.00,WeatherDisplay:10.37,2013-02-25 23:59:00,
2013-02-25 19:04:00,36.9,27.3,30.15,NE,36,0.0,0.0,68,0.00,CLR,,0.00,WeatherDisplay:10.37,2013-02-26 00:04:00,
2013-02-25 19:10:00,36.9,27.7,30.15,NE,36,0.0,1.1,69,0.00,CLR,,0.00,WeatherDisplay:10.37,2013-02-26 00:10:00,
2013-02-25 19:15:00,36.9,27.7,30.15,NE,36,0.0,0.0,69,0.00,CLR,,0.00,WeatherDisplay:10.37,2013-02-26 00:15:00,
2013-02-25 19:20:00,36.6,28.1,30.15,NE,36,0.0,0.0,71,0.00,CLR,,0.00,WeatherDisplay:10.37,2013-02-26 00:20:00,
2013-02-25 19:25:00,36.3,28.1,30.14,NE,36,0.0,0.0,72,0.00,CLR,,0.00,WeatherDisplay:10.37,2013-02-26 00:25:00,
2013-02-25 19:31:00,36.2,27.7,30.14,NE,36,0.0,0.0,71,0.00,CLR,,0.00,WeatherDisplay:10.37,2013-02-26 00:31:00,
2013-02-25 19:36:00,36.2,27.7,30.14,NE,36,0.0,0.0,71,0.00,CLR,,0.00,WeatherDisplay:10.37,2013-02-26 00:36:00,
2013-02-25 19:41:00,36.0,27.5,30.14,NE,36,0.0,0.0,71,0.00,CLR,,0.00,WeatherDisplay:10.37,2013-02-26 00:41:00,
2013-02-25 19:46:00,35.9,27.4,30.15,NE,36,0.0,0.0,71,0.00,CLR,,0.00,WeatherDisplay:10.37,2013-02-26 00:46:00,
2013-02-25 19:51:00,35.8,27.7,30.15,NE,36,0.0,0.0,72,0.00,CLR,,0.00,WeatherDisplay:10.37,2013-02-26 00:51:00,
2013-02-25 19:57:00,35.6,27.8,30.15,NE,36,0.0,0.0,73,0.00,CLR,,0.00,WeatherDisplay:10.37,2013-02-26 00:57:00,
2013-02-25 20:02:00,35.5,27.7,30.15,NE,36,0.0,0.0,73,0.00,CLR,,0.00,WeatherDisplay:10.37,2013-02-26 01:02:00,
2013-02-25 20:07:00,35.3,27.8,30.15,NE,36,0.0,0.0,74,0.00,CLR,,0.00,WeatherDisplay:10.37,2013-02-26 01:07:00,
2013-02-25 20:12:00,35.3,28.2,30.15,NE,36,0.0,0.0,75,0.00,CLR,,0.00,WeatherDisplay:10.37,2013-02-26 01:12:00,
2013-02-25 20:17:00,35.2,28.7,30.15,NE,36,0.0,0.0,77,0.00,CLR,,0.00,WeatherDisplay:10.37,2013-02-26 01:17:00,
2013-02-25 20:23:00,35.0,28.5,30.15,NE,36,0.0,0.0,77,0.00,CLR,,0.00,WeatherDisplay:10.37,2013-02-26 01:23:00,
2013-02-25 20:28:00,34.9,28.4,30.15,NE,36,0.0,0.0,77,0.00,CLR,,0.00,WeatherDisplay:10.37,2013-02-26 01:28:00,
2013-02-25 20:33:00,34.7,28.5,30.15,NE,36,0.0,0.0,78,0.00,CLR,,0.00,WeatherDisplay:10.37,2013-02-26 01:33:00,
2013-02-25 20:38:00,34.6,28.4,30.15,NE,36,0.0,0.0,78,0.00,CLR,,0.00,WeatherDisplay:10.37,2013-02-26 01:38:00,
2013-02-25 20:44:00,34.4,27.9,30.15,NE,36,0.0,0.0,77,0.00,CLR,,0.00,WeatherDisplay:10.37,2013-02-26 01:44:00,
2013-02-25 20:49:00,34.4,27.9,30.15,NE,36,0.0,0.0,77,0.00,CLR,,0.00,WeatherDisplay:10.37,2013-02-26 01:49:00,
2013-02-25 20:54:00,34.3,27.8,30.15,NE,36,0.0,0.0,77,0.00,CLR,,0.00,WeatherDisplay:10.37,2013-02-26 01:54:00,
2013-02-25 20:59:00,34.1,28.0,30.15,NE,36,0.0,0.0,78,0.00,CLR,,0.00,WeatherDisplay:10.37,2013-02-26 01:59:00,
2013-02-25 21:05:00,34.0,27.9,30.15,NE,36,0.0,0.0,78,0.00,CLR,,0.00,WeatherDisplay:10.37,2013-02-26 02:05:00,
2013-02-25 21:10:00,33.7,27.9,30.15,NE,36,0.0,0.0,79,0.00,CLR,,0.00,WeatherDisplay:10.37,2013-02-26 02:10:00,
2013-02-25 21:15:00,33.5,27.7,30.15,NE,36,0.0,0.0,79,0.00,CLR,,0.00,WeatherDisplay:10.37,2013-02-26 02:15:00,
2013-02-25 21:20:00,33.2,27.4,30.16,NE,36,0.0,0.0,79,0.00,CLR,,0.00,WeatherDisplay:10.37,2013-02-26 02:20:00,
2013-02-25 21:25:00,32.9,27.1,30.16,NE,36,0.0,0.0,79,0.00,CLR,,0.00,WeatherDisplay:10.37,2013-02-26 02:25:00,
2013-02-25 21:31:00,32.8,27.6,30.16,NE,36,0.0,0.0,81,0.00,CLR,,0.00,WeatherDisplay:10.37,2013-02-26 02:31:00,
2013-02-25 21:36:00,32.4,27.2,30.16,NE,36,0.0,0.0,81,0.00,CLR,,0.00,WeatherDisplay:10.37,2013-02-26 02:36:00,
2013-02-25 21:41:00,31.9,26.7,30.16,NE,36,0.0,0.0,81,0.00,CLR,,0.00,WeatherDisplay:10.37,2013-02-26 02:41:00,
2013-02-25 21:47:00,31.6,27.0,30.17,NE,36,0.0,0.0,83,0.00,CLR,,0.00,WeatherDisplay:10.37,2013-02-26 02:47:00,
2013-02-25 21:52:00,31.3,27.0,30.17,NE,36,0.0,0.0,84,0.00,CLR,,0.00,WeatherDisplay:10.37,2013-02-26 02:52:00,
2013-02-25 21:57:00,31.0,27.0,30.17,NE,36,0.0,0.0,85,0.00,CLR,,0.00,WeatherDisplay:10.37,2013-02-26 02:57:00,
2013-02-25 22:02:00,30.9,26.9,30.17,NE,36,0.0,0.0,85,0.00,CLR,,0.00,WeatherDisplay:10.37,2013-02-26 03:02:00,
2013-02-25 22:07:00,30.7,26.7,30.17,NE,36,0.0,0.0,85,0.00,CLR,,0.00,WeatherDisplay:10.37,2013-02-26 03:07:00,
2013-02-25 22:12:00,30.4,26.7,30.18,NE,36,0.0,0.0,86,0.00,CLR,,0.00,WeatherDisplay:10.37,2013-02-26 03:12:00,
2013-02-25 22:18:00,30.1,26.4,30.18,NE,36,0.0,0.0,86,0.00,CLR,,0.00,WeatherDisplay:10.37,2013-02-26 03:18:00,
2013-02-25 22:23:00,30.0,26.3,30.18,NE,36,0.0,0.0,86,0.00,CLR,,0.00,WeatherDisplay:10.37,2013-02-26 03:23:00,
2013-02-25 22:28:00,30.0,26.6,30.18,NE,36,0.0,0.0,87,0.00,CLR,,0.00,WeatherDisplay:10.37,2013-02-26 03:28:00,
2013-02-25 22:34:00,30.0,26.6,30.18,NE,36,0.0,0.0,87,0.00,CLR,,0.00,WeatherDisplay:10.37,2013-02-26 03:34:00,
2013-02-25 22:39:00,29.8,26.7,30.18,NE,36,0.0,0.0,88,0.00,CLR,,0.00,WeatherDisplay:10.37,2013-02-26 03:39:00,
2013-02-25 22:44:00,29.7,26.9,30.18,NE,36,0.0,0.0,89,0.00,CLR,,0.00,WeatherDisplay:10.37,2013-02-26 03:44:00,
2013-02-25 22:49:00,29.8,27.0,30.18,NE,36,0.0,0.0,89,0.00,CLR,,0.00,WeatherDisplay:10.37,2013-02-26 03:49:00,
2013-02-25 22:54:00,29.8,27.0,30.18,NE,36,0.0,0.0,89,0.00,CLR,,0.00,WeatherDisplay:10.37,2013-02-26 03:54:00,
2013-02-25 23:00:00,29.8,27.0,30.18,NE,36,0.0,0.0,89,0.00,CLR,,0.00,WeatherDisplay:10.37,2013-02-26 04:00:00,
2013-02-25 23:05:00,29.8,27.0,30.18,NE,36,0.0,0.0,89,0.00,CLR,,0.00,WeatherDisplay:10.37,2013-02-26 04:05:00,
2013-02-25 23:10:00,29.8,26.7,30.18,NE,36,0.0,0.0,88,0.00,CLR,,0.00,WeatherDisplay:10.37,2013-02-26 04:10:00,
2013-02-25 23:16:00,29.7,26.6,30.18,NE,36,0.0,0.0,88,0.00,CLR,,0.00,WeatherDisplay:10.37,2013-02-26 04:16:00,
2013-02-25 23:21:00,29.7,26.6,30.18,NE,36,0.0,0.0,88,0.00,CLR,,0.00,WeatherDisplay:10.37,2013-02-26 04:21:00,
2013-02-25 23:26:00,29.7,26.6,30.18,NE,36,0.0,0.0,88,0.00,CLR,,0.00,WeatherDisplay:10.37,2013-02-26 04:26:00,
2013-02-25 23:31:00,29.7,26.6,30.18,NE,36,0.0,0.0,88,0.00,CLR,,0.00,WeatherDisplay:10.37,2013-02-26 04:31:00,
2013-02-25 23:37:00,29.5,26.4,30.18,NE,36,0.0,0.0,88,0.00,CLR,,0.00,WeatherDisplay:10.37,2013-02-26 04:37:00,
2013-02-25 23:42:00,29.5,26.4,30.18,NE,36,0.0,0.0,88,0.00,CLR,,0.00,WeatherDisplay:10.37,2013-02-26 04:42:00,
2013-02-25 23:47:00,29.4,26.3,30.18,NE,36,0.0,0.0,88,0.00,CLR,,0.00,WeatherDisplay:10.37,2013-02-26 04:47:00,
2013-02-25 23:52:00,29.3,26.5,30.17,NE,36,0.0,0.0,89,0.00,CLR,,0.00,WeatherDisplay:10.37,2013-02-26 04:52:00,
2013-02-25 23:57:00,29.1,26.3,30.17,NE,36,0.0,0.0,89,0.00,CLR,,0.00,WeatherDisplay:10.37,2013-02-26 04:57:00,